Time;durP1;ratioP1;P1;durP2;ratioP2;P2;SDS_P1;SDS_P2;PMS_P1;PMS_P2;Temp;Humidity;BMP_temperature;BMP_pressure;BME280_temperature;BME280_humidity;BME280_pressure;Samples;Min_cycle;Max_cycle;Signal;HPM_P1;HPM_P2
2022/05/25 00:00:43;;;;;;;;;;;;;;;20.30;58.89;99111.94;4446654;32;33366;-85
2022/05/25 00:03:12;;;;;;;;;;;;;;;20.22;58.99;99107.13;4444655;32;34208;-85
2022/05/25 00:05:41;;;;;;;;;;;;;;;19.92;59.86;99110.72;4445760;32;33774;-85
2022/05/25 00:08:11;;;;;;;;;;;;;;;19.87;59.66;99119.84;4452412;32;33822;-84
2022/05/25 00:10:40;;;;;;;;;;;;;;;19.64;60.42;99121.19;4447496;32;32405;-85
2022/05/25 00:13:10;;;;;;;;;;;;;;;19.62;60.69;99118.66;4448124;32;33966;-85
2022/05/25 00:15:39;;;;;;;;;;;;;;;19.88;59.86;99106.56;4449510;32;33797;-85
2022/05/25 00:18:08;;;;;;;;;;;;;;;19.31;61.19;99104.69;4454293;32;34047;-85
2022/05/25 00:20:35;;;;;;;;;;;;;;;19.47;61.06;99101.13;4453563;32;32551;-85
2022/05/25 00:23:04;;;;;;;;;;;;;;;19.42;61.09;99096.13;4449098;32;34116;-84
2022/05/25 00:25:34;;;;;;;;;;;;;;;19.56;60.77;99095.34;4449404;32;34324;-85
2022/05/25 00:28:03;;;;;;;;;;;;;;;19.44;60.93;99091.66;4449173;32;34408;-85
2022/05/25 00:30:35;;;;;;;;;;;;;;;19.46;61.10;99100.28;4449517;32;33554;-84
2022/05/25 00:33:04;;;;;;;;;;;;;;;19.44;61.07;99103.97;4453681;32;33700;-84
2022/05/25 00:35:34;;;;;;;;;;;;;;;19.39;61.32;99104.22;4449462;32;34886;-85
2022/05/25 00:38:03;;;;;;;;;;;;;;;19.37;61.23;99106.94;4449363;32;34022;-84
2022/05/25 00:40:34;;;;;;;;;;;;;;;19.49;61.15;99105.38;4449615;32;33949;-84
2022/05/25 00:43:03;;;;;;;;;;;;;;;19.60;60.99;99113.47;4449142;32;33856;-84
2022/05/25 00:45:34;;;;;;;;;;;;;;;19.95;59.97;99105.25;4454206;32;34739;-84
2022/05/25 00:48:03;;;;;;;;;;;;;;;20.11;59.18;99101.72;4449480;32;34870;-84
2022/05/25 00:51:12;;;;;;;;;;;;;;;20.05;59.75;99108.16;4449506;32;33877;-84
2022/05/25 00:53:20;;;;;;;;;;;;;;;20.24;58.71;99103.47;4447424;32;34636;-85
2022/05/25 00:55:49;;;;;;;;;;;;;;;20.10;59.35;99100.84;4448898;32;34764;-84
2022/05/25 00:58:18;;;;;;;;;;;;;;;20.21;58.59;99106.28;4441493;32;33712;-84
2022/05/25 01:00:48;;;;;;;;;;;;;;;20.02;58.87;99113.62;4453967;32;33346;-84
2022/05/25 01:03:19;;;;;;;;;;;;;;;20.29;57.73;99113.72;4447769;32;34133;-84
2022/05/25 01:05:51;;;;;;;;;;;;;;;19.92;59.37;99108.09;4449059;32;33712;-84
2022/05/25 01:08:28;;;;;;;;;;;;;;;19.75;59.28;99110.91;4449173;32;33862;-84
2022/05/25 01:11:00;;;;;;;;;;;;;;;19.95;58.86;99117.59;4440617;32;34063;-84
2022/05/25 01:13:34;;;;;;;;;;;;;;;19.85;59.16;99125.19;4448579;32;34220;-84
2022/05/25 01:16:07;;;;;;;;;;;;;;;20.09;58.49;99124.66;4453992;32;33915;-84
2022/05/25 01:18:36;;;;;;;;;;;;;;;19.84;59.08;99115.63;4448836;32;34146;-86
2022/05/25 01:21:06;;;;;;;;;;;;;;;19.53;59.87;99119.19;4449239;32;33209;-84
2022/05/25 01:23:44;;;;;;;;;;;;;;;19.78;59.08;99116.81;4449012;32;33288;-84
2022/05/25 01:26:40;;;;;;;;;;;;;;;19.62;59.72;99114.25;4448005;32;34356;-84
2022/05/25 01:29:10;;;;;;;;;;;;;;;19.61;59.57;99125.69;4433561;32;34651;-84
2022/05/25 01:31:41;;;;;;;;;;;;;;;19.46;60.39;99125.75;4438450;32;33130;-85
2022/05/25 01:34:10;;;;;;;;;;;;;;;19.71;59.78;99123.38;4449265;32;35037;-85
2022/05/25 01:36:40;;;;;;;;;;;;;;;19.80;59.09;99127.25;4449005;32;34800;-85
2022/05/25 01:39:10;;;;;;;;;;;;;;;19.61;59.35;99123.06;4438923;32;34210;-84
2022/05/25 01:41:39;;;;;;;;;;;;;;;19.54;59.90;99131.41;4448953;32;33316;-84
2022/05/25 01:44:08;;;;;;;;;;;;;;;19.51;59.49;99123.69;4448934;32;34748;-84
2022/05/25 01:46:38;;;;;;;;;;;;;;;19.54;59.27;99128.78;4453632;32;34206;-85
2022/05/25 01:49:12;;;;;;;;;;;;;;;19.46;59.70;99129.22;4448566;32;33238;-84
2022/05/25 01:51:42;;;;;;;;;;;;;;;19.61;58.64;99130.94;4448589;32;33341;-84
2022/05/25 01:54:10;;;;;;;;;;;;;;;19.69;57.89;99121.78;4443399;32;34237;-84
2022/05/25 01:56:40;;;;;;;;;;;;;;;18.98;59.85;99116.19;4449045;32;34979;-84
2022/05/25 01:59:09;;;;;;;;;;;;;;;18.86;60.04;99114.25;4453335;32;34802;-84
2022/05/25 02:01:47;;;;;;;;;;;;;;;19.07;59.38;99114.84;4448732;32;33098;-85
2022/05/25 02:04:22;;;;;;;;;;;;;;;19.11;59.61;99124.25;4448166;32;33713;-85
2022/05/25 02:06:59;;;;;;;;;;;;;;;18.81;60.11;99125.97;4448354;32;33786;-84
2022/05/25 02:09:31;;;;;;;;;;;;;;;19.06;59.45;99125.41;4448195;32;33991;-85
2022/05/25 02:12:01;;;;;;;;;;;;;;;18.92;59.41;99134.13;4448181;32;33631;-84
2022/05/25 02:14:32;;;;;;;;;;;;;;;19.00;59.30;99125.78;4453620;32;33909;-84
2022/05/25 02:17:02;;;;;;;;;;;;;;;19.07;58.69;99124.50;4448669;32;33343;-85
2022/05/25 02:19:33;;;;;;;;;;;;;;;19.22;58.07;99123.63;4448436;32;34469;-85
2022/05/25 02:22:04;;;;;;;;;;;;;;;19.22;58.55;99114.88;4448395;32;33311;-85
2022/05/25 02:24:33;;;;;;;;;;;;;;;19.38;57.71;99120.97;4451213;32;34097;-85
2022/05/25 02:27:02;;;;;;;;;;;;;;;19.49;57.93;99118.53;4448958;32;34104;-84
2022/05/25 02:29:32;;;;;;;;;;;;;;;19.11;59.09;99113.72;4453363;32;34404;-85
2022/05/25 02:32:01;;;;;;;;;;;;;;;19.33;58.46;99117.72;4448076;32;33108;-85
2022/05/25 02:34:31;;;;;;;;;;;;;;;19.24;58.71;99110.38;4448149;32;34963;-85
2022/05/25 02:37:02;;;;;;;;;;;;;;;19.01;59.22;99107.28;4448705;32;33488;-84
2022/05/25 02:39:32;;;;;;;;;;;;;;;18.87;60.04;99101.97;4448394;32;34695;-85
2022/05/25 02:42:01;;;;;;;;;;;;;;;18.69;60.69;99112.53;4453392;32;33904;-84
2022/05/25 02:44:29;;;;;;;;;;;;;;;18.74;60.36;99105.25;4449671;32;33922;-85
2022/05/25 02:46:58;;;;;;;;;;;;;;;18.72;60.63;99101.84;4448211;32;34208;-84
2022/05/25 02:49:26;;;;;;;;;;;;;;;18.79;60.45;99107.66;4448437;32;33862;-85
2022/05/25 02:51:55;;;;;;;;;;;;;;;18.50;61.38;99111.88;4448362;32;33257;-84
2022/05/25 02:54:25;;;;;;;;;;;;;;;18.58;61.06;99109.69;4452985;32;34149;-85
2022/05/25 02:56:53;;;;;;;;;;;;;;;18.73;60.64;99106.19;4448497;32;34279;-84
2022/05/25 02:59:22;;;;;;;;;;;;;;;18.56;61.20;99103.66;4447793;32;34082;-85
2022/05/25 03:01:50;;;;;;;;;;;;;;;18.39;62.11;99109.84;4449348;32;33915;-84
2022/05/25 03:04:19;;;;;;;;;;;;;;;18.36;62.22;99112.62;4450103;32;34533;-85
2022/05/25 03:06:48;;;;;;;;;;;;;;;18.28;62.41;99113.03;4454818;32;34886;-85
2022/05/25 03:09:17;;;;;;;;;;;;;;;17.95;63.46;99107.81;4452957;32;33946;-85
2022/05/25 03:11:47;;;;;;;;;;;;;;;18.28;62.66;99110.41;4450303;32;33016;-85
2022/05/25 03:14:15;;;;;;;;;;;;;;;18.02;63.37;99108.34;4450075;32;34525;-85
2022/05/25 03:16:44;;;;;;;;;;;;;;;18.61;61.58;99112.13;4450036;32;34415;-85
2022/05/25 03:19:14;;;;;;;;;;;;;;;18.55;61.74;99115.09;4449677;32;34812;-85
2022/05/25 03:21:43;;;;;;;;;;;;;;;18.38;62.43;99116.00;4439204;32;32884;-85
2022/05/25 03:24:12;;;;;;;;;;;;;;;18.39;62.31;99122.09;4445628;32;33886;-85
2022/05/25 03:26:41;;;;;;;;;;;;;;;18.68;61.05;99113.50;4449716;32;35091;-84
2022/05/25 03:29:13;;;;;;;;;;;;;;;18.62;60.62;99108.56;4449632;32;34635;-85
2022/05/25 03:31:42;;;;;;;;;;;;;;;18.64;60.92;99114.59;4450001;32;34089;-85
2022/05/25 03:34:11;;;;;;;;;;;;;;;18.50;61.14;99109.25;4453466;32;33193;-85
2022/05/25 03:36:39;;;;;;;;;;;;;;;18.49;61.56;99112.81;4450093;32;33942;-84
2022/05/25 03:39:08;;;;;;;;;;;;;;;18.66;61.01;99117.16;4450051;32;34723;-84
2022/05/25 03:41:36;;;;;;;;;;;;;;;18.76;60.54;99119.19;4449416;32;33898;-84
2022/05/25 03:44:05;;;;;;;;;;;;;;;18.88;60.37;99127.31;4449810;32;34582;-85
2022/05/25 03:46:37;;;;;;;;;;;;;;;18.82;60.54;99133.75;4454682;32;34675;-85
2022/05/25 03:49:05;;;;;;;;;;;;;;;18.74;60.98;99138.56;4449450;32;33653;-84
2022/05/25 03:51:34;;;;;;;;;;;;;;;18.76;60.97;99142.00;4449271;32;34072;-84
2022/05/25 03:54:03;;;;;;;;;;;;;;;19.02;59.82;99143.16;4449414;32;33617;-85
2022/05/25 03:56:31;;;;;;;;;;;;;;;19.09;59.59;99136.62;4449855;32;33779;-85
2022/05/25 03:59:00;;;;;;;;;;;;;;;19.02;60.08;99137.06;4451014;32;33565;-87
2022/05/25 04:01:31;;;;;;;;;;;;;;;19.03;59.83;99144.00;4454380;32;33068;-85
2022/05/25 04:04:03;;;;;;;;;;;;;;;19.19;59.55;99145.69;4449480;32;35882;-86
2022/05/25 04:06:31;;;;;;;;;;;;;;;19.44;58.35;99154.78;4449370;32;34833;-85
2022/05/25 04:09:00;;;;;;;;;;;;;;;19.40;58.69;99148.88;4449208;32;35112;-85
2022/05/25 04:11:29;;;;;;;;;;;;;;;19.42;58.58;99151.38;4449582;32;33170;-85
2022/05/25 04:13:57;;;;;;;;;;;;;;;19.43;58.49;99158.34;4453812;32;34972;-85
2022/05/25 04:16:26;;;;;;;;;;;;;;;19.59;58.11;99158.28;4449682;32;33859;-85
2022/05/25 04:18:54;;;;;;;;;;;;;;;19.51;57.79;99158.75;4448992;32;33946;-85
2022/05/25 04:21:24;;;;;;;;;;;;;;;19.64;56.99;99152.75;4449609;32;34104;-84
2022/05/25 04:23:53;;;;;;;;;;;;;;;19.59;57.37;99159.12;4449737;32;33494;-85
2022/05/25 04:26:22;;;;;;;;;;;;;;;19.81;56.70;99165.78;4454096;32;34364;-84
2022/05/25 04:28:50;;;;;;;;;;;;;;;19.89;56.23;99171.47;4449362;32;34734;-84
2022/05/25 04:31:19;;;;;;;;;;;;;;;19.65;57.12;99178.16;4449326;32;32919;-85
2022/05/25 04:33:47;;;;;;;;;;;;;;;19.81;56.66;99179.81;4449586;32;33949;-84
2022/05/25 04:36:22;;;;;;;;;;;;;;;19.94;56.67;99165.94;4449847;32;35110;-85
2022/05/25 04:38:52;;;;;;;;;;;;;;;19.84;56.14;99160.38;4452832;32;33656;-85
2022/05/25 04:41:24;;;;;;;;;;;;;;;19.93;55.46;99151.88;4454400;32;33359;-85
2022/05/25 04:43:52;;;;;;;;;;;;;;;19.91;55.71;99156.44;4449191;32;34777;-85
2022/05/25 04:46:21;;;;;;;;;;;;;;;19.72;55.68;99161.09;4448616;32;34906;-84
2022/05/25 04:48:50;;;;;;;;;;;;;;;19.51;56.02;99161.38;4449775;32;34436;-85
2022/05/25 04:51:19;;;;;;;;;;;;;;;19.57;56.17;99158.41;4449378;32;33894;-84
2022/05/25 04:53:48;;;;;;;;;;;;;;;19.92;56.00;99162.53;4453966;32;33829;-85
2022/05/25 04:59:03;;;;;;;;;;;;;;;20.56;53.90;99178.81;4452418;32;34201;-84
2022/05/25 05:01:32;;;;;;;;;;;;;;;20.53;53.93;99168.44;4476917;32;34009;-84
2022/05/25 05:04:01;;;;;;;;;;;;;;;20.67;54.24;99173.75;4464476;32;33360;-85
2022/05/25 05:06:30;;;;;;;;;;;;;;;20.45;54.75;99177.69;4461427;32;36127;-85
2022/05/25 05:08:58;;;;;;;;;;;;;;;20.36;55.16;99180.88;4468446;32;34179;-85
2022/05/25 05:11:28;;;;;;;;;;;;;;;20.49;55.34;99182.75;4460337;32;34012;-85
2022/05/25 05:13:56;;;;;;;;;;;;;;;20.72;54.36;99184.00;4444107;32;31371;-85
2022/05/25 05:16:25;;;;;;;;;;;;;;;21.03;53.91;99188.16;4444093;32;34138;-85
2022/05/25 05:18:55;;;;;;;;;;;;;;;21.03;53.54;99190.81;4448672;32;34176;-86
2022/05/25 05:21:25;;;;;;;;;;;;;;;20.88;53.75;99193.47;4448848;32;33338;-84
2022/05/25 05:23:53;;;;;;;;;;;;;;;21.03;53.88;99193.44;4453665;32;33774;-85
2022/05/25 05:26:21;;;;;;;;;;;;;;;21.03;54.00;99196.06;4461334;32;34312;-85
2022/05/25 05:28:53;;;;;;;;;;;;;;;21.30;52.86;99198.72;4468261;32;35330;-86
2022/05/25 05:31:22;;;;;;;;;;;;;;;21.28;52.81;99204.06;4457496;32;33988;-85
2022/05/25 05:33:51;;;;;;;;;;;;;;;21.34;52.80;99210.78;4461557;32;37476;-85
2022/05/25 05:36:20;;;;;;;;;;;;;;;21.22;53.78;99209.78;4448161;32;34990;-86
2022/05/25 05:38:52;;;;;;;;;;;;;;;21.60;52.84;99217.00;4454244;32;33830;-85
2022/05/25 05:41:22;;;;;;;;;;;;;;;21.50;52.31;99221.19;4477290;32;34408;-84
2022/05/25 05:43:52;;;;;;;;;;;;;;;21.48;52.81;99225.72;4459738;32;35429;-85
2022/05/25 05:46:22;;;;;;;;;;;;;;;21.36;53.54;99222.06;4449525;32;37694;-86
2022/05/25 05:48:51;;;;;;;;;;;;;;;21.30;53.51;99223.28;4457550;32;34190;-85
2022/05/25 05:51:20;;;;;;;;;;;;;;;21.07;54.29;99229.22;4461020;32;33204;-86
2022/05/25 05:53:49;;;;;;;;;;;;;;;21.52;53.13;99229.84;4451683;32;34433;-84
2022/05/25 05:56:18;;;;;;;;;;;;;;;21.49;52.71;99236.19;4463170;32;33947;-86
2022/05/25 05:58:53;;;;;;;;;;;;;;;21.04;54.38;99235.53;4470079;32;33951;-85
2022/05/25 06:01:22;;;;;;;;;;;;;;;21.38;53.56;99237.78;4466063;32;33884;-86
2022/05/25 06:03:51;;;;;;;;;;;;;;;21.43;53.67;99247.16;4466742;32;34971;-85
2022/05/25 06:06:20;;;;;;;;;;;;;;;21.49;53.63;99248.53;4451999;32;35000;-86
2022/05/25 06:08:48;;;;;;;;;;;;;;;21.56;52.88;99238.44;4452224;32;33794;-85
2022/05/25 06:11:17;;;;;;;;;;;;;;;21.55;53.21;99237.56;4454515;32;34004;-86
2022/05/25 06:13:46;;;;;;;;;;;;;;;21.53;53.33;99236.84;4451874;32;34065;-86
2022/05/25 06:21:48;;;;;;;;;;;;;;;20.96;54.26;99239.59;4452734;32;33880;-86
2022/05/25 06:24:18;;;;;;;;;;;;;;;21.23;54.14;99235.19;4448290;32;34152;-85
2022/05/25 06:26:47;;;;;;;;;;;;;;;21.78;52.47;99235.22;4455410;32;34733;-85
2022/05/25 06:29:17;;;;;;;;;;;;;;;21.64;52.94;99241.38;4444244;32;33887;-85
2022/05/25 06:31:48;;;;;;;;;;;;;;;21.72;52.64;99250.50;4444665;32;34095;-85
2022/05/25 06:34:16;;;;;;;;;;;;;;;21.80;51.87;99250.00;4449832;32;33601;-86
2022/05/25 06:36:47;;;;;;;;;;;;;;;21.80;51.92;99243.88;4447282;32;34871;-86
2022/05/25 06:39:18;;;;;;;;;;;;;;;21.50;53.07;99234.38;4459695;32;34731;-85
2022/05/25 06:41:46;;;;;;;;;;;;;;;21.58;52.95;99239.19;4469826;32;33131;-86
2022/05/25 06:44:15;;;;;;;;;;;;;;;21.57;53.15;99235.66;4459451;32;34527;-85
2022/05/25 06:46:44;;;;;;;;;;;;;;;22.15;51.87;99230.91;4435266;32;780006;-85
2022/05/25 06:49:14;;;;;;;;;;;;;;;21.82;52.75;99232.25;4453817;32;36596;-85
2022/05/25 06:51:43;;;;;;;;;;;;;;;22.04;52.55;99242.22;4450906;32;34000;-85
2022/05/25 06:54:14;;;;;;;;;;;;;;;22.19;51.82;99235.03;4441470;32;34225;-86
2022/05/25 06:56:43;;;;;;;;;;;;;;;22.34;52.13;99234.00;4432088;32;34065;-86
2022/05/25 06:59:12;;;;;;;;;;;;;;;22.52;51.23;99238.97;4432927;32;33743;-85
2022/05/25 07:01:41;;;;;;;;;;;;;;;22.73;50.76;99244.56;4439329;32;32924;-87
2022/05/25 07:04:10;;;;;;;;;;;;;;;22.87;50.63;99248.88;4442072;32;32730;-85
2022/05/25 07:06:40;;;;;;;;;;;;;;;23.04;49.80;99250.34;4441213;32;34692;-85
2022/05/25 07:09:08;;;;;;;;;;;;;;;22.75;50.53;99256.72;4442979;32;33483;-86
2022/05/25 07:11:38;;;;;;;;;;;;;;;23.24;50.13;99259.47;4446274;32;34086;-87
2022/05/25 07:14:07;;;;;;;;;;;;;;;23.18;50.24;99258.12;4442211;32;34064;-86
2022/05/25 07:16:36;;;;;;;;;;;;;;;23.43;49.88;99251.88;4444517;32;34373;-86
2022/05/25 07:19:05;;;;;;;;;;;;;;;23.68;48.94;99243.00;4448512;32;34284;-86
2022/05/25 07:21:33;;;;;;;;;;;;;;;23.46;49.30;99248.16;4448994;32;30984;-86
2022/05/25 07:24:03;;;;;;;;;;;;;;;23.46;49.65;99242.88;4444053;32;32980;-85
2022/05/25 07:26:33;;;;;;;;;;;;;;;23.33;50.51;99254.37;4442269;32;33128;-86
2022/05/25 07:29:01;;;;;;;;;;;;;;;23.55;49.84;99258.09;4443368;32;34143;-88
2022/05/25 07:31:30;;;;;;;;;;;;;;;23.59;49.55;99259.56;4449009;32;32598;-87
2022/05/25 07:34:01;;;;;;;;;;;;;;;23.78;49.25;99254.63;4456680;32;34231;-86
2022/05/25 07:36:30;;;;;;;;;;;;;;;23.74;50.41;99253.16;4447857;32;33265;-86
2022/05/25 07:39:04;;;;;;;;;;;;;;;23.83;49.63;99251.63;4452745;32;34832;-86
2022/05/25 07:41:35;;;;;;;;;;;;;;;24.06;49.54;99258.66;4444937;32;33322;-87
2022/05/25 07:44:03;;;;;;;;;;;;;;;24.21;49.19;99256.66;4447235;32;34207;-87
2022/05/25 07:46:32;;;;;;;;;;;;;;;24.16;48.01;99258.84;4456977;32;35059;-87
2022/05/25 07:49:01;;;;;;;;;;;;;;;24.14;49.24;99259.88;4456943;32;34146;-86
2022/05/25 07:51:29;;;;;;;;;;;;;;;24.45;49.47;99263.66;4459084;32;34030;-87
2022/05/25 07:53:58;;;;;;;;;;;;;;;24.35;48.44;99263.53;4464597;32;35022;-85
2022/05/25 07:56:30;;;;;;;;;;;;;;;24.55;48.98;99254.09;4454226;32;34088;-86
2022/05/25 07:58:59;;;;;;;;;;;;;;;24.69;48.08;99253.84;4443095;32;34076;-86
2022/05/25 08:07:05;;;;;;;;;;;;;;;24.88;46.99;99265.66;4447845;32;34098;-86
2022/05/25 08:09:34;;;;;;;;;;;;;;;24.97;47.64;99264.91;4459775;32;33796;-85
2022/05/25 08:12:04;;;;;;;;;;;;;;;25.10;46.99;99264.78;4453152;32;31608;-85
2022/05/25 08:14:33;;;;;;;;;;;;;;;25.12;47.16;99262.84;4449238;32;34838;-86
2022/05/25 08:17:02;;;;;;;;;;;;;;;25.26;46.69;99269.75;4453216;32;35058;-87
2022/05/25 08:19:31;;;;;;;;;;;;;;;25.31;47.59;99260.41;4452159;32;33066;-85
2022/05/25 08:21:59;;;;;;;;;;;;;;;25.40;47.44;99256.19;4449473;32;33958;-87
2022/05/25 08:24:29;;;;;;;;;;;;;;;25.44;47.04;99267.38;4448606;32;33849;-87
2022/05/25 08:27:08;;;;;;;;;;;;;;;25.34;46.90;99256.66;4449822;32;35008;-86
2022/05/25 08:30:03;;;;;;;;;;;;;;;25.46;46.93;99255.66;4445461;32;33473;-86
2022/05/25 08:32:34;;;;;;;;;;;;;;;25.39;47.02;99254.47;4453619;32;33479;-87
2022/05/25 08:35:02;;;;;;;;;;;;;;;25.17;47.45;99252.72;4459038;32;34991;-85
2022/05/25 08:37:31;;;;;;;;;;;;;;;25.09;47.96;99252.47;4449058;32;33721;-88
2022/05/25 08:40:00;;;;;;;;;;;;;;;25.57;46.60;99262.78;4449472;32;34474;-86
2022/05/25 08:42:30;;;;;;;;;;;;;;;25.54;46.75;99250.59;4452145;32;33352;-86
2022/05/25 08:44:59;;;;;;;;;;;;;;;25.78;45.97;99257.47;4450253;32;33545;-87
2022/05/25 08:47:28;;;;;;;;;;;;;;;25.77;46.44;99266.44;4453009;32;34820;-87
2022/05/25 08:49:56;;;;;;;;;;;;;;;25.68;46.03;99260.06;4447801;32;33430;-86
2022/05/25 08:52:26;;;;;;;;;;;;;;;25.84;45.37;99259.63;4447207;32;34037;-87
2022/05/25 08:54:54;;;;;;;;;;;;;;;25.74;45.22;99261.37;4447763;32;33893;-88
2022/05/25 08:57:24;;;;;;;;;;;;;;;25.57;46.15;99257.47;4451438;32;33939;-86
2022/05/25 08:59:55;;;;;;;;;;;;;;;25.77;46.96;99253.13;4457978;32;34354;-88
2022/05/25 09:02:25;;;;;;;;;;;;;;;25.98;46.62;99257.69;4449188;32;33150;-87
2022/05/25 09:04:55;;;;;;;;;;;;;;;25.90;45.47;99256.50;4447884;32;33777;-87
2022/05/25 09:07:25;;;;;;;;;;;;;;;25.72;46.47;99250.88;4448290;32;34176;-86
2022/05/25 09:09:54;;;;;;;;;;;;;;;25.82;46.56;99252.75;4450875;32;33503;-88
2022/05/25 09:12:23;;;;;;;;;;;;;;;25.90;46.97;99250.31;4444052;32;32897;-86
2022/05/25 09:14:53;;;;;;;;;;;;;;;26.12;46.49;99249.34;4444824;32;33472;-88
2022/05/25 09:17:26;;;;;;;;;;;;;;;26.39;44.49;99251.50;4446487;32;33816;-87
2022/05/25 09:19:55;;;;;;;;;;;;;;;26.28;45.93;99254.22;4447863;32;33883;-87
2022/05/25 09:22:24;;;;;;;;;;;;;;;26.42;44.55;99253.87;4444357;32;32980;-86
2022/05/25 09:24:53;;;;;;;;;;;;;;;26.13;46.27;99248.41;4448139;32;32660;-88
2022/05/25 09:27:23;;;;;;;;;;;;;;;25.83;47.27;99260.63;4448481;32;34833;-87
2022/05/25 09:29:53;;;;;;;;;;;;;;;26.33;46.17;99254.66;4449584;32;34220;-88
2022/05/25 09:32:28;;;;;;;;;;;;;;;26.59;45.47;99249.78;4447128;32;32910;-87
2022/05/25 09:34:58;;;;;;;;;;;;;;;26.40;46.04;99251.34;4446870;32;34922;-86
2022/05/25 09:37:30;;;;;;;;;;;;;;;26.76;45.68;99246.50;4447070;32;34020;-87
2022/05/25 09:39:59;;;;;;;;;;;;;;;26.98;45.30;99249.94;4452987;32;33798;-86
2022/05/25 09:42:27;;;;;;;;;;;;;;;27.26;44.34;99248.34;4448386;32;34008;-87
2022/05/25 09:44:56;;;;;;;;;;;;;;;27.38;45.05;99257.06;4449175;32;34877;-88
2022/05/25 09:47:29;;;;;;;;;;;;;;;27.55;43.55;99259.03;4448668;32;35456;-89
2022/05/25 09:49:58;;;;;;;;;;;;;;;27.56;43.83;99263.38;4447087;32;33807;-88
2022/05/25 09:52:31;;;;;;;;;;;;;;;27.57;43.41;99259.75;4451452;32;32854;-86
2022/05/25 09:55:00;;;;;;;;;;;;;;;27.80;43.88;99264.78;4446271;32;33665;-86
2022/05/25 09:57:34;;;;;;;;;;;;;;;27.78;42.51;99253.44;4446351;32;35081;-88
2022/05/25 10:00:05;;;;;;;;;;;;;;;27.61;43.58;99260.31;4444862;32;33779;-88
2022/05/25 10:02:37;;;;;;;;;;;;;;;28.13;43.13;99260.88;4445589;32;33111;-87
2022/05/25 10:05:14;;;;;;;;;;;;;;;28.26;43.29;99258.72;4445184;32;35429;-87
2022/05/25 10:07:49;;;;;;;;;;;;;;;28.28;42.33;99262.09;4450144;32;34962;-86
2022/05/25 10:10:24;;;;;;;;;;;;;;;27.67;42.77;99259.75;4444587;32;33753;-87
2022/05/25 10:12:58;;;;;;;;;;;;;;;27.47;43.78;99256.22;4459040;32;33592;-86
2022/05/25 10:15:34;;;;;;;;;;;;;;;27.84;43.75;99252.91;4446448;32;33058;-87
2022/05/25 10:18:04;;;;;;;;;;;;;;;27.62;44.25;99259.34;4446780;32;34031;-87
2022/05/25 10:20:35;;;;;;;;;;;;;;;27.70;44.48;99250.62;4453255;32;32146;-88
2022/05/25 10:23:05;;;;;;;;;;;;;;;28.04;43.99;99251.88;4449801;32;33199;-88
2022/05/25 10:25:40;;;;;;;;;;;;;;;28.18;41.96;99245.28;4449188;32;34133;-87
2022/05/25 10:28:18;;;;;;;;;;;;;;;28.23;43.58;99258.19;4448877;32;34215;-87
2022/05/25 10:39:28;;;;;;;;;;;;;;;28.70;40.98;99239.50;4465394;32;33840;-86
2022/05/25 10:42:00;;;;;;;;;;;;;;;27.62;43.54;99249.50;4456448;32;34138;-87
2022/05/25 10:44:32;;;;;;;;;;;;;;;27.83;43.51;99245.87;4447553;32;34071;-87
2022/05/25 10:47:01;;;;;;;;;;;;;;;27.79;43.59;99250.62;4447557;32;34132;-87
2022/05/25 10:49:32;;;;;;;;;;;;;;;27.82;42.98;99252.16;4447387;32;34024;-88
2022/05/25 10:52:02;;;;;;;;;;;;;;;27.80;43.18;99248.81;4447625;32;34612;-88
2022/05/25 10:54:52;;;;;;;;;;;;;;;27.95;43.37;99249.25;4452303;32;33684;-86
2022/05/25 10:57:33;;;;;;;;;;;;;;;28.20;42.95;99247.81;4451551;32;33833;-87
2022/05/25 11:00:03;;;;;;;;;;;;;;;28.43;42.56;99248.28;4448748;32;33825;-88
2022/05/25 11:02:36;;;;;;;;;;;;;;;28.67;41.22;99245.16;4450514;32;34038;-88
2022/05/25 11:05:10;;;;;;;;;;;;;;;28.70;40.21;99244.84;4463742;32;33906;-87
2022/05/25 11:07:39;;;;;;;;;;;;;;;28.45;41.45;99246.31;4462949;32;34438;-87
2022/05/25 11:10:20;;;;;;;;;;;;;;;28.34;41.58;99247.31;4463918;32;33781;-88
2022/05/25 11:12:52;;;;;;;;;;;;;;;28.05;41.97;99247.37;4466487;32;33666;-86
2022/05/25 11:15:23;;;;;;;;;;;;;;;28.24;42.41;99255.34;4461636;32;33266;-89
2022/05/25 11:17:59;;;;;;;;;;;;;;;28.31;41.21;99260.97;4462482;32;34265;-87
2022/05/25 11:20:30;;;;;;;;;;;;;;;28.28;42.38;99251.41;4462851;32;34054;-87
2022/05/25 11:23:11;;;;;;;;;;;;;;;28.07;42.65;99264.09;4459234;32;33999;-87
2022/05/25 11:25:44;;;;;;;;;;;;;;;28.14;41.74;99259.88;4448564;32;33715;-87
2022/05/25 11:28:20;;;;;;;;;;;;;;;28.06;41.70;99257.09;4454206;32;34691;-87
2022/05/25 11:30:53;;;;;;;;;;;;;;;28.35;42.50;99262.37;4453787;32;34397;-87
2022/05/25 11:33:27;;;;;;;;;;;;;;;28.28;40.78;99254.09;4449028;32;33803;-89
2022/05/25 11:36:19;;;;;;;;;;;;;;;28.24;41.62;99259.84;4445171;32;33325;-87
2022/05/25 11:38:54;;;;;;;;;;;;;;;28.47;40.47;99261.22;4445564;32;33959;-88
2022/05/25 11:41:29;;;;;;;;;;;;;;;28.85;40.18;99250.53;4441189;32;34349;-87
2022/05/25 11:44:02;;;;;;;;;;;;;;;28.58;40.10;99251.38;4437961;32;34008;-89
2022/05/25 11:46:34;;;;;;;;;;;;;;;28.75;39.59;99245.25;4454407;32;32698;-88
2022/05/25 11:49:41;;;;;;;;;;;;;;;28.83;40.09;99252.53;4454566;32;34118;-87
2022/05/25 11:52:20;;;;;;;;;;;;;;;29.04;39.84;99244.25;4449777;32;34390;-88
2022/05/25 11:54:59;;;;;;;;;;;;;;;28.58;40.64;99249.53;4434532;32;33662;-87
2022/05/25 11:57:29;;;;;;;;;;;;;;;28.64;40.70;99256.13;4446260;32;34058;-88
2022/05/25 12:00:08;;;;;;;;;;;;;;;28.71;40.41;99254.56;4446939;32;32574;-87
2022/05/25 12:03:09;;;;;;;;;;;;;;;28.59;41.19;99264.56;4448644;32;33983;-89
2022/05/25 12:05:41;;;;;;;;;;;;;;;28.44;41.59;99271.31;4414040;32;34426;-89
2022/05/25 12:08:20;;;;;;;;;;;;;;;28.60;41.59;99268.91;4417383;32;33245;-88
2022/05/25 12:10:50;;;;;;;;;;;;;;;28.36;41.43;99273.88;4410549;32;34922;-88
2022/05/25 12:13:21;;;;;;;;;;;;;;;28.14;43.28;99267.03;4418306;32;34015;-87
2022/05/25 12:15:55;;;;;;;;;;;;;;;28.18;43.39;99271.13;4416457;32;33507;-88
2022/05/25 12:18:25;;;;;;;;;;;;;;;28.45;42.33;99265.88;4416335;32;32818;-87
2022/05/25 12:20:54;;;;;;;;;;;;;;;28.67;42.45;99280.69;4420929;32;34863;-88
2022/05/25 12:23:26;;;;;;;;;;;;;;;28.58;42.67;99286.06;4416543;32;34135;-89
2022/05/25 12:25:55;;;;;;;;;;;;;;;28.29;42.78;99277.13;4415928;32;34653;-88
2022/05/25 12:28:24;;;;;;;;;;;;;;;28.60;42.94;99273.41;4416641;32;33368;-88
2022/05/25 12:30:57;;;;;;;;;;;;;;;28.36;42.17;99280.03;4416639;32;34047;-88
2022/05/25 12:33:27;;;;;;;;;;;;;;;28.19;43.45;99286.94;4421045;32;33530;-89
2022/05/25 12:35:55;;;;;;;;;;;;;;;28.25;43.21;99282.91;4422830;32;34831;-88
2022/05/25 12:38:26;;;;;;;;;;;;;;;28.46;42.86;99283.59;4420142;32;32894;-88
2022/05/25 12:40:56;;;;;;;;;;;;;;;28.35;42.17;99281.03;4451742;32;34688;-89
2022/05/25 12:43:43;;;;;;;;;;;;;;;28.33;42.30;99285.66;4448899;32;35097;-88
2022/05/25 12:48:58;;;;;;;;;;;;;;;28.48;41.71;99278.91;4449536;32;33135;-88
2022/05/25 12:51:36;;;;;;;;;;;;;;;28.49;41.93;99279.78;4452004;32;34020;-87
2022/05/25 12:54:06;;;;;;;;;;;;;;;28.00;43.38;99269.16;4453171;32;34190;-88
2022/05/25 12:56:38;;;;;;;;;;;;;;;28.41;42.60;99271.59;4450597;32;34032;-89
2022/05/25 12:59:10;;;;;;;;;;;;;;;28.39;41.79;99279.78;4449997;32;33194;-87
2022/05/25 13:01:39;;;;;;;;;;;;;;;28.59;41.59;99269.06;4449363;32;34087;-88
2022/05/25 13:04:17;;;;;;;;;;;;;;;28.49;41.93;99272.59;4453100;32;34927;-88
2022/05/25 13:07:05;;;;;;;;;;;;;;;28.44;42.64;99264.16;4451898;32;33126;-88
2022/05/25 13:09:40;;;;;;;;;;;;;;;28.43;41.67;99256.28;4449549;32;33306;-87
2022/05/25 13:12:28;;;;;;;;;;;;;;;28.57;41.65;99257.69;4446878;32;32973;-90
2022/05/25 13:14:57;;;;;;;;;;;;;;;28.74;40.60;99256.91;4449089;32;34704;-89
2022/05/25 13:17:42;;;;;;;;;;;;;;;28.37;41.63;99259.56;4449003;32;34720;-89
2022/05/25 13:20:14;;;;;;;;;;;;;;;28.54;41.28;99257.97;4448756;32;33185;-88
2022/05/25 13:22:43;;;;;;;;;;;;;;;28.33;42.00;99259.00;4448811;32;33972;-88
2022/05/25 13:25:23;;;;;;;;;;;;;;;28.61;41.36;99251.06;4453168;32;34973;-88
2022/05/25 13:27:58;;;;;;;;;;;;;;;28.80;40.69;99251.00;4436234;32;35097;-88
2022/05/25 13:30:29;;;;;;;;;;;;;;;29.08;40.63;99259.88;4446126;32;34178;-90
2022/05/25 13:33:03;;;;;;;;;;;;;;;29.25;39.05;99266.22;4442690;32;36454;-88